Thiago Barrios

Olheiro-Chefe - River Plate
3 Dez 2028
Domingo
Processo

Personalidade

Adaptabilidade (10) Ambição (9) Controvérsia (18) Lealdade (9) Pressão (11) Profissionalismo (1) Espírito Esportivo (14) Temperamento (13)

Perfil

Estilo de Treinamento Democrático
Licença Continental B
Determinação 7
Gestão de Pessoas 12
Motivação 10
Disciplina 6
Satisfação no Trabalho
100%
Fadiga
0%
Função Olheiro-Chefe
Salário 69.1K p/s
Contrato 14.03.2029

Desempenho

Comportamento Bom
Eficácia do Treinamento
45%
Desenvolvimento do Jogador
50%
Prevenção de Lesões
50%
Implementação Tática
55%

Eventos Recentes

Participou de uma reunião de recrutamento agora
Recomendou um alvo de transferência agora
Recomendou um alvo de transferência agora
Participou de uma reunião de recrutamento agora
Participou de uma reunião de recrutamento 7d atrás
Recomendou um alvo de transferência 7d atrás
Recomendou um alvo de transferência 7d atrás
Participou de uma reunião de recrutamento 7d atrás

Monitorando agora

344
Jogador Clube Status Habilidade Confiança Observado Última observação Último voto
Josh King Newcastle United Ativo 137 / 158 40% 1 02.12.2028 -
Aytor Herrera Mineros de Guayana Ativo 82 / 96 40% 1 02.12.2028 -
Franco Vedoya Central Norte Ativo 121 / 109 40% 3 30.11.2028 -
Leandro Mamut Gimnasia La Plata Ativo 119 / 119 40% 1 30.11.2028 -
Tobías Leiva Estudiantes Ativo 126 / 125 40% 1 30.11.2028 -
Diego Méndez Tacuarembo Ativo 99 / 99 30% 1 / 1m 26.07.2028 -
Francisco Machis Llaneros Ativo 89 / 91 40% 1 19.06.2028 -
Christos Mouzakitis Hull City Ativo 137 / 152 40% 1 19.06.2028 -
Luca Meirelles Kudrivka Ativo 126 / 120 40% 2 01.06.2028 -
Igor Tyjon Barrow AFC Ativo 115 / 133 40% 2 01.06.2028 -
Faustino Fernández Colon Ativo 88 / 102 62% 1 01.06.2028 Aprovar
Prince Ating Adana Demirspor Ativo 91 / 89 40% 1 31.05.2028 -
Dmitry Nikitin Baltika Ativo 89 / 107 40% 1 31.05.2028 -
Honest Ahanor Atalanta Ativo 132 / 149 40% 3 30.05.2028 -
Neco Williams Wrexham Ativo 163 / 144 40% 1 29.05.2028 Mais informações
Tyreece Campbell Charlton Athletic Ativo 114 / 110 40% 10 28.05.2028 -
Felipe Varela Trujillanos Ativo 86 / 99 40% 1 27.05.2028 -
Rocco Vata Watford Ativo 120 / 118 40% 6 26.05.2028 -
Ante Crnac Bristol Rovers Ativo 139 / 114 40% 6 26.05.2028 -
Mohamadou Kanté Crawley Town Ativo 118 / 113 40% 1 26.05.2028 -
Kaye Furo Reading Ativo 135 / 114 40% 2 24.05.2028 -
Justin Obikwu Queens Park Rangers Ativo 116 / 102 40% 1 24.05.2028 -
Ben Ahmed Kohili Paradou Ativo 103 / 114 40% 2 23.05.2028 -
Babis Kostoulas Oxford United Ativo 155 / 159 40% 1 23.05.2028 -
Abubakar Adams Aduana Stars Ativo 76 / 91 40% 1 22.05.2028 -
Alessio Insignito Spezia Ativo 92 / 97 40% 1 22.05.2028 -
Samuel Edozie Southampton Ativo 137 / 120 40% 1 21.05.2028 -
Paddy Lane Reading Ativo 125 / 104 40% 3 20.05.2028 -
Ben Gannon Doak Charlton Athletic Ativo 138 / 158 40% 2 19.05.2028 -
Jayden Danns Bradford City Ativo 141 / 140 40% 5 18.05.2028 -
Jamie Donley West Bromwich Albion Ativo 134 / 117 40% 1 18.05.2028 -
Luca Williams-Barnett Walsall Ativo 110 / 136 40% 6 17.05.2028 -
Lucas Ramírez Tacuarembo Ativo 85 / 88 42% 1 / 1m 17.05.2028 -
Fodé Doumbouya Rampla Juniors Ativo 86 / 91 52% 1 / 1m 17.05.2028 -
Joaquín Muñoz Rampla Juniors Ativo 91 / 94 30% 1 / 1m 17.05.2028 -
Matías Jaime Rampla Juniors Ativo 83 / 86 30% 1 / 1m 17.05.2028 -
Derensili Sanches Fernandes Huddersfield Town Ativo 129 / 131 40% 4 16.05.2028 -
Lazar Samardžić Cagliari Ativo 162 / 161 40% 1 16.05.2028 -
Herculano Nabian Empoli Ativo 116 / 111 40% 1 16.05.2028 -
Alieu Njie Torino Ativo 130 / 137 40% 1 16.05.2028 -
Ryan Kavuma-McQueen Accrington Stanley Ativo 124 / 119 40% 2 12.05.2028 -
Sonny Carey Charlton Athletic Ativo 117 / 113 40% 2 12.05.2028 -
Derry Murkin Derby County Ativo 121 / 144 40% 2 11.05.2028 -
Simone Suppa Virtus Verona Ativo 83 / 103 40% 1 11.05.2028 -
Yasin Ayari Middlesbrough Ativo 154 / 161 40% 1 11.05.2028 -
Andre Brooks Sheffield United Ativo 144 / 144 40% 3 10.05.2028 -
Brandon Thomas-Asante Blackpool Ativo 124 / 115 40% 3 10.05.2028 -
Augustus Kargbo Blackburn Rovers Ativo 111 / 123 40% 1 09.05.2028 -
Inti Borghetto Patronato Ativo 97 / 101 40% 1 09.05.2028 -
Jon Eceizabarrena Real Sociedad Ativo 95 / 116 40% 2 08.05.2028 -
Daniel Kyerewaa Reading Ativo 127 / 107 40% 7 08.05.2028 -
Jorge Cabezas Hurtado Watford Ativo 115 / 121 40% 1 08.05.2028 -
Harry Leonard Rukh Ativo 110 / 110 40% 1 08.05.2028 -
Stiven Shpendi Empoli Ativo 133 / 130 40% 4 06.05.2028 -
William Osula Wrexham Ativo 141 / 132 40% 3 06.05.2028 -
Matteo Ruggeri Middlesbrough Ativo 159 / 168 40% 1 06.05.2028 -
Jaidon Anthony Derby County Ativo 133 / 127 40% 1 05.05.2028 -
Matteo Prati Cagliari Ativo 138 / 135 40% 2 02.05.2028 -
Ángel Aguayo Sol de America Ativo 104 / 94 40% 2 02.05.2028 -
Camillo Tavernelli Arezzo Ativo 133 / 126 40% 1 29.04.2028 -
Jorthy Mokio ADO Den Haag Ativo 120 / 131 40% 2 28.04.2028 -
Kwesi Sorotu Badori Berekum Chelsea Ativo 85 / 91 40% 1 28.04.2028 -
Joel Ezra Enyimba Ativo 99 / 89 40% 2 21.04.2028 -
Noahkai Banks FC Augsburg Ativo 134 / 136 40% 1 21.04.2028 -
Eli Junior Kroupi Bournemouth Ativo 153 / 162 40% 2 19.04.2028 -
Yevhenii Pastukh Kryvbas Ativo 131 / 116 40% 2 19.04.2028 -
Marcus Tavernier Bournemouth Ativo 144 / 151 40% 2 19.04.2028 -
Malcolm Ebiowei Gillingham Ativo 108 / 110 40% 1 19.04.2028 -
Yehor Hunichev Feniks Ativo 105 / 101 40% 1 18.04.2028 -
Louis Flower Crawley Town Ativo 98 / 97 40% 2 15.04.2028 -
Calvin Ramsay Bristol Rovers Ativo 138 / 111 40% 1 13.04.2028 -
Odel Offiah Shrewsbury Town Ativo 143 / 130 40% 1 13.04.2028 -
Jay Stansfield Birmingham Ativo 126 / 131 40% 1 12.04.2028 -
Miro Arsenal Tula Ativo 114 / 127 40% 1 10.04.2028 -
Wandile Duba ASO Chlef Ativo 117 / 107 40% 5 09.04.2028 -
Mohamed Touré Cardiff City Ativo 112 / 117 40% 1 09.04.2028 -
Trey Nyoni Rotherham United Ativo 145 / 138 40% 1 07.04.2028 -
Shea Charles Southampton Ativo 143 / 147 40% 1 06.04.2028 -
Adrià Altimira Deportivo La Coruña Ativo 150 / 130 40% 1 06.04.2028 -
Josh Stokes Bristol City Ativo 117 / 127 40% 1 06.04.2028 -
Albert Amoah Wa All Stars Ativo 99 / 110 40% 1 06.04.2028 -
Carlos Alcaraz Stoke City Ativo 148 / 150 40% 2 03.04.2028 -
Amine Boukamir Charleroi Ativo 109 / 112 40% 2 03.04.2028 -
Martim Cunha Porto Ativo 94 / 110 40% 2 03.04.2028 -
Leo Castledine Middlesbrough Ativo 133 / 128 40% 3 02.04.2028 -
Jhon Solís Birmingham Ativo 137 / 144 40% 1 02.04.2028 -
Andrey Ivlev Nizhniy Novgorod Ativo 103 / 113 40% 2 31.03.2028 -
Giovanni Leoni Lincoln City Ativo 140 / 132 40% 1 31.03.2028 -
Stanley Mills Crewe Alexandra Ativo 143 / 128 40% 2 29.03.2028 -
Halam Loboa Sevilla Ativo 124 / 141 40% 1 29.03.2028 -
Joshua Ajala Walsall Ativo 106 / 93 40% 1 28.03.2028 -
Nicolas Sport Recife Ativo 98 / 105 40% 1 27.03.2028 -
Gael Moreno Morelia Ativo 75 / 74 40% 1 26.03.2028 -
Vitaly Janelt Derby County Ativo 152 / 136 40% 2 25.03.2028 -
Sebastiano Esposito Cagliari Ativo 145 / 145 40% 2 24.03.2028 -
Archie Gray Southampton Ativo 153 / 167 40% 1 21.03.2028 -
Seb Ferdinand Rotherham United Ativo 123 / 128 40% 1 18.03.2028 -
Kyrell Lisbie Peterborough United Ativo 98 / 106 40% 1 17.03.2028 -
Alessandro Seghetti Campobasso Ativo 117 / 126 40% 1 16.03.2028 -
Musa Barrow ES Setif Ativo 129 / 143 40% 4 13.03.2028 -
Bernardo Lima Porto Ativo 115 / 129 40% 1 13.03.2028 -
Mirza Ćatović VfB Stuttgart Ativo 109 / 140 40% 1 13.03.2028 -
Tyrese Campbell Sheffield United Ativo 134 / 143 40% 3 09.03.2028 -
Kasey McAteer Barnsley Ativo 123 / 148 40% 2 09.03.2028 -
Johnny Kenny Preston Ativo 108 / 136 40% 1 02.03.2028 -
Jayden Addai Bari Ativo 143 / 154 40% 1 28.02.2028 -
Jayden Bogle Leeds United Ativo 154 / 148 40% 1 26.02.2028 -
Kevin Medina Mirandés Ativo 136 / 135 40% 1 22.02.2028 -
Callum Brittain Middlesbrough Ativo 136 / 130 40% 1 21.02.2028 -
Kwame Poku Queens Park Rangers Ativo 126 / 139 40% 1 17.02.2028 -
Abdoul Ouattara Port Vale Ativo 149 / 134 40% 1 15.02.2028 -
Luis Rodriguez Valur Ativo 135 / 121 40% 1 09.02.2028 -
Dato Mchedlidze Tskhinvali Ativo 118 / 107 40% 2 08.02.2028 -
Iván Pomba Sheffield Wednesday Ativo 104 / 99 40% 1 08.02.2028 -
Sorba Thomas Stoke City Ativo 126 / 146 40% 1 08.02.2028 -
Harvey Blair Portsmouth Ativo 129 / 127 40% 1 08.02.2028 -
Daniel Banjaqui Benfica Ativo 120 / 124 40% 1 08.02.2028 -
Franco Nicola Liverpool Montevideo Ativo 127 / 116 40% 1 05.02.2028 -
Giorgi Arabidze Torpedo Kutaisi Ativo 131 / 104 40% 1 03.02.2028 -
Tiago Pucciarelli IF Elfsborg Ativo 106 / 94 40% 3 02.02.2028 -
Agustín Alaniz Rentistas Ativo 108 / 108 40% 1 02.02.2028 -
Martín Campos Ferro Carril Oeste Ativo 128 / 114 40% 2 30.01.2028 -
Diego Gaitán Maipú Ativo 116 / 120 40% 3 29.01.2028 -
Alexander Díaz Deportivo Riestra Ativo 121 / 127 40% 1 29.01.2028 -
Santiago Sala Güemes Ativo 106 / 115 40% 1 28.01.2028 -
Bruno Leyes Godoy Cruz Ativo 127 / 121 40% 3 25.01.2028 -
Tomás Ferreyra Defensores Unidos Ativo 105 / 108 40% 1 25.01.2028 -
Brian Farioli Estudiantes Ativo 113 / 106 40% 2 24.01.2028 -
Matías Rosales Sarmiento Ativo 110 / 115 40% 2 23.01.2028 -
Juan Bisanz Huracán Ativo 135 / 137 40% 1 23.01.2028 -
Franco Ayunta Temperley Ativo 120 / 101 40% 1 22.01.2028 -
Joaquín Gho Argentinos Juniors Ativo 119 / 134 40% 1 20.01.2028 -
Augusto Berrondo Tristán Suárez Ativo 102 / 113 40% 1 19.01.2028 -
Tomás Fernández Aldosivi Ativo 114 / 125 40% 1 18.01.2028 -
David Veliz Güemes Ativo 117 / 110 40% 1 18.01.2028 -
Marco Miori Alvarado Ativo 120 / 106 40% 1 18.01.2028 -
Malik Mothersille Stockport County Ativo 121 / 123 40% 3 17.01.2028 -
Rafael Moreno Atletico Venezuela Ativo 120 / 105 40% 3 17.01.2028 -
Federico Versaci Talleres Ativo 104 / 113 40% 1 15.01.2028 -
Ramón González Almirante Brown Ativo 121 / 119 40% 1 15.01.2028 -
Iñaki Larthirigoyen San Telmo Ativo 112 / 121 40% 1 14.01.2028 -
Manuel Duarte Barracas Central Ativo 114 / 125 40% 2 11.01.2028 -
Enzo Cabrera Danubio Ativo 103 / 124 40% 1 10.01.2028 -
Matías Contrera Hrvatski Dragovoljac Ativo 97 / 109 40% 1 10.01.2028 -
Alex Luna Instituto Ativo 124 / 139 40% 1 08.01.2028 -
Federico Bisanz Atlanta Ativo 110 / 108 40% 1 08.01.2028 -
Facundo Taborda Racing Ativo 117 / 102 40% 1 04.01.2028 -
Julián Bragado Morón Ativo 90 / 100 40% 2 20.12.2027 -
Kabiru Abdullahi Barau Ativo 103 / 103 40% 1 20.12.2027 -
Tyler Fletcher Rotherham United Ativo 104 / 110 40% 1 14.12.2027 -
Santiago Colidio Liepaja Ativo 94 / 90 40% 1 02.12.2027 -
Joelson Gamarra General Caballero Ativo 67 / 74 40% 1 02.12.2027 -
Umar Ada Nasarawa United Ativo 80 / 104 40% 1 01.12.2027 -
Maren Kefas Plateau United Ativo 102 / 88 40% 5 30.11.2027 -
Tosin Olawale El-Kanemi Warriors Ativo 106 / 90 40% 1 30.11.2027 -
Juan Camilo Córdoba Deportivo Pereira Ativo 96 / 101 40% 4 26.11.2027 -
Piero Cari Alianza Lima Ativo 104 / 104 40% 2 26.11.2027 -
Mateo Peralta Danubio Ativo 112 / 118 40% 2 23.11.2027 -
Joel Medina Independiente Ativo 107 / 129 40% 1 23.11.2027 -
Alejandro Almaraz NK Celje Ativo 108 / 129 40% 1 23.11.2027 -
Pedro Baltika Ativo 133 / 124 40% 1 21.11.2027 -
Tiago Gordillo San Miguel Ativo 94 / 104 40% 1 21.11.2027 -
Amaury Morales Leon Ativo 113 / 119 40% 1 19.11.2027 -
Victor Hernandez Santa Fe Ativo 124 / 127 40% 4 17.11.2027 -
Idris Ajiya Nasarawa United Ativo 88 / 91 40% 5 17.11.2027 -
Óscar Hinojosa Metropolitanos Ativo 78 / 89 40% 1 16.11.2027 -
Ruben Ramos LA Galaxy Ativo 95 / 99 40% 2 13.11.2027 -
Chimobi Igwilo Rangers International Ativo 77 / 86 40% 2 09.11.2027 -
Ivan Borges Defensores Ativo 90 / 96 40% 2 07.11.2027 -
Nazareno Roselli Defensa y Justicia Ativo 123 / 115 40% 1 07.11.2027 -
Emmanuel Ndubueze Shooting Stars Ativo 94 / 94 40% 1 04.11.2027 -
Alex Verón Vélez Ativo 114 / 123 40% 1 03.11.2027 -
Sebastián Muñoz GIF Sundsvall Ativo 90 / 91 40% 1 02.11.2027 -
Matias Siltanen Malmo FF Ativo 108 / 124 40% 2 29.10.2027 -
Mustapha Umar Kano Pillars Ativo 105 / 112 40% 1 28.10.2027 -
Daniel Idoko Ikorodu City Ativo 95 / 101 40% 1 28.10.2027 -
Giovanni Baroni Talleres Ativo 102 / 113 40% 2 22.10.2027 -
Jeremías Merlo Gimnasia La Plata Ativo 128 / 131 40% 2 21.10.2027 -
Juan Rodríguez Cerro Largo Ativo 103 / 89 40% 1 21.10.2027 -
Gideon Manaseh Ikorodu City Ativo 76 / 104 40% 2 20.10.2027 -
Olaniyi Saheed Kwara United Ativo 109 / 111 40% 1 20.10.2027 -
Joseph Abah Remo Stars Ativo 85 / 101 40% 1 16.10.2027 -
Abubakar Garba Nasarawa United Ativo 94 / 98 40% 1 16.10.2027 -
Nupe Godstime Bayelsa United Ativo 97 / 114 40% 1 13.10.2027 -
Matías Canedo Rampla Juniors Ativo 90 / 101 40% 2 05.10.2027 -
Godswill Kenu Bayelsa United Ativo 63 / 87 40% 1 12.09.2027 -
Nicolás Blanco San Lorenzo Ativo 104 / 109 40% 2 09.09.2027 -
Hugo Rojas Instituto Ativo 97 / 105 40% 1 08.09.2027 -
Mohamed Bolivar Barranquilla Ativo 81 / 82 40% 1 06.09.2027 -
Román Gutiérrez Albion Ativo 79 / 93 58% 1 05.07.2027 -
Matías Kouyoumdjian Cerrito Ativo 90 / 85 58% 1 21.06.2027 -
Eliás Montiel Borussia Dortmund Ativo 125 / 140 40% 1 06.06.2027 -
Emanuele Scipioni Monopoli Ativo 110 / 114 40% 1 02.06.2027 -
Lukas Jensen Millwall Ativo 122 / 109 40% 1 31.05.2027 -
David Romero Parma Ativo 137 / 138 40% 3 30.05.2027 -
Mateus Mané Burnley Ativo 119 / 132 40% 1 25.05.2027 -
Ekain Orobengoa Real Sociedad Ativo 111 / 89 40% 1 24.05.2027 -
David Turnbull Cardiff City Ativo 114 / 128 40% 2 21.05.2027 -
Sam Greenwood Bristol City Ativo 128 / 130 40% 1 21.05.2027 -
Dylan Levitt Leyton Orient Ativo 99 / 117 40% 4 20.05.2027 -
Terry Devlin Portsmouth Ativo 131 / 129 40% 1 19.05.2027 -
Mees Rijks Bristol Rovers Ativo 122 / 106 40% 3 17.05.2027 -
Finn Azaz Southampton Ativo 141 / 113 40% 6 17.05.2027 -
Bobby Clark Derby County Ativo 121 / 110 40% 1 17.05.2027 -
Ilyas Ansah Hull City Ativo 125 / 138 40% 4 15.05.2027 -
Sam Bell Bristol City Ativo 124 / 136 40% 3 14.05.2027 -
Giorgi Chakvetadze Watford Ativo 143 / 125 40% 1 11.05.2027 -
Brooke Norton-Cuffy Hull City Ativo 151 / 127 40% 4 09.05.2027 -
Harry Clarke Preston Ativo 135 / 126 40% 1 08.05.2027 -
Jason Knight Bristol City Ativo 139 / 123 40% 3 07.05.2027 -
Job Ochieng Real Sociedad Ativo 105 / 123 40% 5 06.05.2027 -
Aidan Morris Middlesbrough Ativo 118 / 132 40% 2 06.05.2027 -
Ali Ahmed Norwich City Ativo 120 / 138 40% 2 05.05.2027 -
Calum Kavanagh Oldham Athletic Ativo 91 / 93 40% 3 05.05.2027 -
Welington Southampton Ativo 144 / 140 40% 1 05.05.2027 -
Martin Baturina Como Ativo 139 / 137 40% 2 02.05.2027 -
Othmane Maamma Watford Ativo 119 / 118 40% 2 02.05.2027 -
Dale Taylor Blackpool Ativo 116 / 116 40% 4 01.05.2027 -
Joe Gelhardt Hull City Ativo 128 / 150 40% 5 01.05.2027 -
Isaiah Jones Luton Town Ativo 117 / 137 40% 6 30.04.2027 -
Pontus Almqvist Parma Ativo 127 / 141 40% 1 28.04.2027 -
Francesco Petito Dolomiti Bellunesi Ativo 93 / 90 40% 1 28.04.2027 -
Mohamed-Ali Cho Hull City Ativo 141 / 126 40% 3 26.04.2027 -
Max Johnston Derby County Ativo 132 / 120 40% 2 26.04.2027 -
Josh Coburn Millwall Ativo 113 / 137 40% 3 21.04.2027 -
Scott Twine Bristol City Ativo 111 / 127 40% 2 14.04.2027 -
Joel Bagan Cardiff City Ativo 107 / 132 40% 1 13.04.2027 -
Giorgos Koutsias Famalicao Ativo 115 / 113 40% 1 13.04.2027 -
Tahith Chong Sheffield United Ativo 121 / 133 40% 1 11.04.2027 -
Dennis Cirkin Queens Park Rangers Ativo 118 / 142 40% 2 06.04.2027 -
Kwadwo Baah Watford Ativo 129 / 119 40% 1 30.03.2027 -
Adam Randell Bristol City Ativo 142 / 127 40% 1 27.03.2027 -
Giorgi Kvernadze Frosinone Ativo 109 / 114 40% 1 27.03.2027 -
Max Bird Birmingham Ativo 134 / 143 40% 1 25.03.2027 -
Berna CSKA 1948 Ativo 127 / 135 40% 1 21.03.2027 -
Darlvin Yeboah Bechem United Ativo 90 / 79 40% 1 21.03.2027 -
Milan van Ewijk Coventry City Ativo 142 / 112 40% 2 19.03.2027 -
Cian Ashford Cardiff City Ativo 136 / 135 40% 1 14.03.2027 -
Moses Twum Haras El Hodoud Ativo 87 / 114 40% 1 13.03.2027 -
Alfie Doughty Millwall Ativo 110 / 136 40% 1 13.03.2027 -
Filippo Distefano Empoli Ativo 115 / 99 40% 1 24.02.2027 -
Tomáš Rigo Stoke City Ativo 116 / 125 40% 1 23.02.2027 -
Alex Lowry Wycombe Wanderers Ativo 119 / 106 40% 1 21.02.2027 -
Gabriel Monjes Hamrun Spartans Ativo 70 / 104 40% 2 18.02.2027 -
Jack Diamond Stockport County Ativo 113 / 115 40% 2 18.02.2027 -
Darío Ramírez Real Sociedad Ativo 93 / 97 40% 1 11.02.2027 -
Danylo Honcharuk Probiy Ativo 94 / 82 40% 1 11.02.2027 -
Mohammed Essien Hasaacas Ativo 95 / 87 40% 1 07.02.2027 -
Joseph George Aigle Royal de Moungo Ativo 102 / 79 40% 1 06.02.2027 -
Jack Moylan Lincoln City Ativo 120 / 95 40% 1 03.02.2027 -
Xavier Amaechi Plymouth Argyle Ativo 109 / 106 40% 1 02.02.2027 -
Álex Centelles Levski Ativo 137 / 123 40% 1 02.02.2027 -
Armstrong Oko-Flex Levski Ativo 104 / 130 40% 3 31.01.2027 -
Christian Saydee Wigan Athletic Ativo 93 / 122 40% 2 31.01.2027 -
Marezi Portsmouth Ativo 119 / 124 40% 1 27.01.2027 -
Aidomo Emakhu Oxford United Ativo 101 / 109 40% 1 23.01.2027 -
Matija Frigan Parma Ativo 116 / 105 40% 1 19.01.2027 -
José Martínes CSKA 1948 Ativo 116 / 108 40% 2 16.01.2027 -
George Brown Sheffield Wednesday Ativo 86 / 103 40% 1 15.01.2027 -
Peter Itodo Metalist Ativo 117 / 131 40% 1 09.01.2027 -
Ar'jany Martha Rotherham United Ativo 93 / 126 40% 1 27.12.2026 -
Edu Expósito Espanyol Ativo 157 / 130 40% 4 14.12.2026 -
José Bernal Ethnikos Achnas Ativo 93 / 116 40% 2 01.12.2026 -
Sampson Dweh Mallorca Ativo 133 / 134 66% 1 01.12.2026 Aprovar
Antonio Salado Ospitaletto Ativo 115 / 114 40% 1 30.11.2026 -
Velemseni Ndwandwe Golden Arrows Ativo 95 / 123 40% 1 30.11.2026 -
Sławomir Abramowicz Jagiellonia Ativo 121 / 108 40% 1 28.11.2026 -
Killian Cahill Leyton Orient Ativo 82 / 100 40% 1 27.11.2026 -
Jordan Lotomba Bloemfontein Celtic Ativo 140 / 139 40% 3 25.11.2026 -
Lucas Souto Defensa y Justicia Ativo 116 / 134 40% 2 22.11.2026 -
Jáder Valencia Deportes Tolima Ativo 102 / 113 40% 2 21.11.2026 -
Patrick Schulte Columbus Crew Ativo 110 / 111 40% 3 20.11.2026 -
Lucas Lund Viborg Ativo 129 / 96 40% 1 20.11.2026 -
Alexis Steimbach Gimnasia La Plata Ativo 113 / 128 40% 2 18.11.2026 -
Bradley Zwane SuperSport United Ativo 111 / 126 40% 1 17.11.2026 -
Brian Orosco Godoy Cruz Ativo 128 / 127 40% 2 16.11.2026 -
Luke Southwood Bristol Rovers Ativo 102 / 120 40% 1 14.11.2026 -
Mariano Bracamonte Deportivo Riestra Ativo 125 / 115 40% 1 12.11.2026 -
Will Dennis Milton Keynes Dons Ativo 122 / 115 40% 1 12.11.2026 -
Alex Bass Peterborough United Ativo 98 / 122 40% 1 11.11.2026 -
Alex Palmer Ipswich Town Ativo 137 / 140 40% 1 09.11.2026 -
Omar Carabalí O'Higgins Ativo 119 / 105 40% 1 04.11.2026 -
Federico Martínez MFK Ruzomberok Ativo 121 / 117 40% 1 04.11.2026 -
Thomas Carrique Andorra Ativo 131 / 98 40% 1 03.11.2026 -
Oswin Appollis Orlando Pirates Ativo 138 / 112 40% 1 03.11.2026 -
Sipho Chaine Orlando Pirates Ativo 115 / 111 40% 3 02.11.2026 -
Viljar Myhra OB Ativo 97 / 110 40% 1 02.11.2026 -
Diego Enríquez Sporting Cristal Ativo 139 / 134 40% 2 01.11.2026 -
Sota Kitano Red Bull Salzburg Ativo 115 / 139 40% 2 30.10.2026 -
Lucas Cepeda Elche Ativo 136 / 121 40% 1 30.10.2026 -
Erik Botheim Viking Ativo 122 / 135 40% 1 30.10.2026 -
Jorge Gonzalez Viitorul Ativo 97 / 97 40% 1 24.10.2026 -
Facundo Mura Inter Miami CF Ativo 132 / 134 40% 1 22.10.2026 -
Jens Petter Hauge Bodo/Glimt Ativo 150 / 124 40% 1 21.10.2026 -
Angus Gunn San Jose Earthquakes Ativo 129 / 119 40% 1 19.10.2026 -
Adalberto Peñaranda Deportivo Tachira Ativo 119 / 124 40% 1 12.10.2026 -
Juan Cruz de los Santos Nacional Ativo 132 / 123 40% 1 11.10.2026 -
César Magallan Estudiantes de Merida Ativo 120 / 120 40% 1 11.10.2026 -
Tadeo Allende Inter Miami CF Ativo 131 / 111 40% 1 07.10.2026 -
Duncan McGuire Houston Dynamo Ativo 113 / 123 40% 1 07.10.2026 -
Dayne St. Clair Inter Miami CF Ativo 130 / 126 40% 1 06.10.2026 -
Gino Santilli Kalmar FF Ativo 127 / 133 40% 1 06.10.2026 -
Ángel González Libertad Ativo 113 / 109 40% 2 04.10.2026 -
Kévin Denkey FC Cincinnati Ativo 118 / 123 40% 1 03.10.2026 -
Renato Solís Sporting Cristal Ativo 111 / 133 40% 2 27.09.2026 -
Lucas Verza Olimpia Ativo 120 / 123 40% 1 27.09.2026 -
Tomás Ahumada Audax Italiano Ativo 95 / 121 40% 1 24.09.2026 -
Aldo Pérez Guarani Ativo 110 / 116 40% 1 23.09.2026 -
Luka Gavran Toronto FC Ativo 112 / 121 40% 1 23.09.2026 -
Esteban Obregón Montevideo City Torque Ativo 112 / 103 40% 1 23.09.2026 -
Diego Rossi Monterrey Ativo 124 / 125 40% 1 23.09.2026 -
Juninho Pumas UNAM Ativo 141 / 119 40% 1 22.09.2026 -
Nicolás Campisi Sportivo Luqueno Ativo 121 / 117 40% 2 19.09.2026 -
Duk Atlas Ativo 109 / 110 40% 3 17.09.2026 -
Héctor Holguín Morelia Ativo 100 / 115 40% 1 17.09.2026 -
Diego Romero Universitario Ativo 132 / 133 40% 1 14.09.2026 -
Lucas Di Yorio Santos Laguna Ativo 120 / 104 40% 1 13.09.2026 -
Mourad Tijuana Ativo 116 / 131 40% 2 12.09.2026 -
Genaro Rossi San Martín SJ Ativo 114 / 119 40% 1 12.09.2026 -
Carlos Moreno Pachuca Ativo 137 / 123 40% 2 10.09.2026 -
Nelson Espinoza Union La Calera Ativo 92 / 92 40% 1 08.09.2026 -
Miguel Silva Carabobo Ativo 96 / 111 40% 1 07.09.2026 -
Gonzalo Falcón Cienciano Ativo 108 / 104 40% 1 07.09.2026 -
Eric Ramírez Ankaragucu Ativo 114 / 92 40% 1 06.09.2026 -
Roberto de la Rosa Monterrey Ativo 130 / 115 40% 1 02.09.2026 -
Santiago González Sporting Cristal Ativo 115 / 129 40% 2 01.09.2026 -
Kelvin Flórez Deportes Tolima Ativo 111 / 123 40% 1 31.08.2026 -
Jonatan Torres Cerro Porteno Ativo 111 / 118 40% 1 31.08.2026 -
Germán Berterame Inter Miami CF Ativo 128 / 133 40% 1 28.08.2026 -
Ismael Díaz Leon Ativo 135 / 131 40% 1 27.08.2026 -
Adolfo Muñoz UTC Ativo 114 / 110 40% 1 26.08.2026 -
Ramiro Ruiz Rodríguez Atlético Tucumán Ativo 125 / 129 40% 1 24.08.2026 -
Rodrigo Pollero Deportivo Tachira Ativo 104 / 98 40% 1 23.08.2026 -
Brayan Moreno Santa Fe Ativo 100 / 102 40% 1 22.08.2026 -
Marcus Vinicius Deportivo Pereira Ativo 101 / 102 40% 1 22.08.2026 -
Michael Vadulli Audax Italiano Ativo 115 / 111 40% 1 18.08.2026 -
Alberto Ocejo Santos Laguna Ativo 94 / 109 40% 1 17.08.2026 -
Adrián Parra Deportes Tolima Ativo 108 / 113 40% 1 15.08.2026 -
Gustavo Aguilar Libertad Ativo 118 / 106 40% 1 12.08.2026 -
Luis Ingolotti Atlético Tucumán Ativo 118 / 131 40% 1 08.08.2026 -
Williams Barlasina Fortaleza CEIF Ativo 119 / 120 40% 1 05.08.2026 -
Luca Zidane Leganés Ativo 141 / 138 40% 1 02.08.2026 -
Mauro Silveira Junior Ativo 105 / 121 40% 1 01.08.2026 -
Nicolás Sumavil Platense Ativo 118 / 115 40% 1 01.08.2026 -